Time;durP1;ratioP1;P1;durP2;ratioP2;P2;SDS_P1;SDS_P2;PMS_P1;PMS_P2;Temp;Humidity;BMP_temperature;BMP_pressure;BME280_temperature;BME280_humidity;BME280_pressure;Samples;Min_cycle;Max_cycle;Signal;HPM_P1;HPM_P2
2023/12/12 00:01:50;;;;;;;;;;;9.20;99.90;;;;;;4993286;28;19905;-76
2023/12/12 00:04:16;;;;;;;;;;;9.10;99.90;;;;;;4988033;28;19994;-76
2023/12/12 00:06:42;;;;;;;;;;;9.10;99.90;;;;;;5004606;28;19906;-76
2023/12/12 00:09:08;;;;;;;;;;;9.00;99.90;;;;;;4987783;28;19905;-76
2023/12/12 00:11:33;;;;;;;;;;;9.10;99.90;;;;;;4987969;28;19997;-77
2023/12/12 00:13:59;;;;;;;;;;;9.00;99.90;;;;;;5004251;28;19913;-75
2023/12/12 00:16:24;;;;;;;;;;;9.00;99.90;;;;;;5004428;28;19906;-77
2023/12/12 00:18:50;;;;;;;;;;;9.00;99.90;;;;;;4988176;28;19906;-75
2023/12/12 00:21:15;;;;;;;;;;;8.90;99.90;;;;;;4985175;28;19953;-74
2023/12/12 00:23:41;;;;;;;;;;;8.90;99.90;;;;;;4984813;28;19906;-77
2023/12/12 00:26:07;;;;;;;;;;;8.90;99.90;;;;;;4985082;28;19902;-74
2023/12/12 00:28:34;;;;;;;;;;;8.90;99.90;;;;;;4967923;28;19913;-76
2023/12/12 00:31:00;;;;;;;;;;;8.90;99.90;;;;;;4984726;28;19905;-74
2023/12/12 00:33:25;;;;;;;;;;;8.90;99.90;;;;;;4984978;28;20161;-77
2023/12/12 00:35:51;;;;;;;;;;;8.90;99.90;;;;;;4976554;28;19906;-77
2023/12/12 00:38:17;;;;;;;;;;;8.90;99.90;;;;;;4986944;28;20242;-77
2023/12/12 00:40:52;;;;;;;;;;;8.90;99.90;;;;;;5003649;28;19996;-74
2023/12/12 00:43:18;;;;;;;;;;;8.90;99.90;;;;;;5004210;28;20161;-74
2023/12/12 00:45:43;;;;;;;;;;;9.00;99.90;;;;;;5003272;28;19912;-75
2023/12/12 00:48:09;;;;;;;;;;;9.00;99.90;;;;;;5004551;28;19901;-75
2023/12/12 00:50:35;;;;;;;;;;;8.90;99.90;;;;;;5002595;28;19906;-75
2023/12/12 00:53:00;;;;;;;;;;;8.90;99.90;;;;;;4969907;28;19906;-76
2023/12/12 00:55:26;;;;;;;;;;;8.90;99.90;;;;;;4967492;28;19969;-75
2023/12/12 00:57:51;;;;;;;;;;;9.00;99.90;;;;;;4984033;28;20104;-76
2023/12/12 01:00:17;;;;;;;;;;;9.00;99.90;;;;;;4967248;28;19914;-76
2023/12/12 01:02:42;;;;;;;;;;;9.00;99.90;;;;;;4967124;28;20061;-76
2023/12/12 01:05:08;;;;;;;;;;;9.00;99.90;;;;;;4967434;28;19913;-76
2023/12/12 01:07:34;;;;;;;;;;;9.00;99.90;;;;;;4984620;28;19913;-76
2023/12/12 01:09:59;;;;;;;;;;;9.00;99.90;;;;;;4998008;28;19960;-75
2023/12/12 01:12:25;;;;;;;;;;;9.00;99.90;;;;;;5003998;28;19906;-76
2023/12/12 01:14:50;;;;;;;;;;;9.00;99.90;;;;;;4986165;28;19913;-77
2023/12/12 01:17:16;;;;;;;;;;;9.00;99.90;;;;;;4970569;28;20150;-76
2023/12/12 01:19:41;;;;;;;;;;;9.00;99.90;;;;;;5003327;28;19983;-77
2023/12/12 01:22:07;;;;;;;;;;;9.00;99.90;;;;;;4986620;28;19906;-76
2023/12/12 01:24:34;;;;;;;;;;;9.00;99.90;;;;;;5002093;28;20195;-77
2023/12/12 01:27:00;;;;;;;;;;;9.00;99.90;;;;;;4983658;28;19906;-76
2023/12/12 01:29:25;;;;;;;;;;;9.00;99.90;;;;;;4984728;28;20069;-77
2023/12/12 01:31:51;;;;;;;;;;;9.00;99.90;;;;;;4966368;28;19906;-76
2023/12/12 01:34:17;;;;;;;;;;;9.00;99.90;;;;;;4984343;28;19977;-77
2023/12/12 01:36:42;;;;;;;;;;;9.00;99.90;;;;;;4998812;28;20128;-76
2023/12/12 01:39:08;;;;;;;;;;;9.10;99.90;;;;;;4970455;28;19902;-76
2023/12/12 01:41:34;;;;;;;;;;;9.10;99.90;;;;;;5002229;28;19906;-75
2023/12/12 01:43:59;;;;;;;;;;;9.10;99.90;;;;;;4982516;28;19952;-76
2023/12/12 01:46:25;;;;;;;;;;;9.10;99.90;;;;;;5003545;28;19901;-76
2023/12/12 01:48:51;;;;;;;;;;;9.10;99.90;;;;;;4985504;28;19995;-76
2023/12/12 01:51:16;;;;;;;;;;;9.10;99.90;;;;;;4987366;28;19912;-77
2023/12/12 01:53:44;;;;;;;;;;;9.10;99.90;;;;;;4986704;28;19901;-76
2023/12/12 01:56:10;;;;;;;;;;;9.10;99.90;;;;;;5003418;28;19912;-76
2023/12/12 01:58:36;;;;;;;;;;;9.10;99.90;;;;;;5007726;28;19909;-76
2023/12/12 02:01:02;;;;;;;;;;;9.10;99.90;;;;;;4983135;28;20085;-76
2023/12/12 02:03:28;;;;;;;;;;;9.00;99.90;;;;;;4987802;28;19906;-76
2023/12/12 02:05:58;;;;;;;;;;;9.00;99.90;;;;;;4987275;28;19906;-76
2023/12/12 02:08:25;;;;;;;;;;;9.00;99.90;;;;;;4987971;28;19906;-77
2023/12/12 02:10:51;;;;;;;;;;;8.90;99.90;;;;;;4986979;28;19906;-74
2023/12/12 02:13:16;;;;;;;;;;;9.00;99.90;;;;;;4970733;28;19973;-76
2023/12/12 02:15:42;;;;;;;;;;;9.00;99.90;;;;;;4987873;28;19902;-74
2023/12/12 02:18:08;;;;;;;;;;;9.00;99.90;;;;;;4973539;28;20065;-75
2023/12/12 02:20:33;;;;;;;;;;;9.00;99.90;;;;;;4987736;28;20177;-75
2023/12/12 02:22:59;;;;;;;;;;;8.90;99.90;;;;;;4953748;28;20092;-76
2023/12/12 02:25:25;;;;;;;;;;;8.80;99.90;;;;;;4987445;28;19953;-76
2023/12/12 02:27:50;;;;;;;;;;;8.60;99.90;;;;;;4969381;28;20140;-76
2023/12/12 02:30:17;;;;;;;;;;;8.50;99.90;;;;;;4987518;28;19906;-75
2023/12/12 02:32:42;;;;;;;;;;;8.40;99.90;;;;;;4970107;28;20219;-75
2023/12/12 02:35:11;;;;;;;;;;;8.30;99.90;;;;;;4989699;28;19952;-76
2023/12/12 02:37:36;;;;;;;;;;;8.10;99.90;;;;;;5007040;28;19902;-75
2023/12/12 02:40:03;;;;;;;;;;;8.10;99.90;;;;;;5006037;28;19921;-76
2023/12/12 02:42:28;;;;;;;;;;;8.10;99.90;;;;;;5007193;28;19944;-75
2023/12/12 02:44:57;;;;;;;;;;;8.10;99.90;;;;;;5005988;28;19902;-76
2023/12/12 02:47:23;;;;;;;;;;;8.10;99.90;;;;;;4989346;28;20187;-77
2023/12/12 02:49:49;;;;;;;;;;;8.20;99.90;;;;;;4988404;28;19906;-75
2023/12/12 02:52:14;;;;;;;;;;;8.20;99.90;;;;;;5006646;28;20087;-76
2023/12/12 02:54:40;;;;;;;;;;;8.30;99.90;;;;;;4991561;28;19906;-76
2023/12/12 02:57:06;;;;;;;;;;;8.40;99.90;;;;;;4986220;28;20460;-77
2023/12/12 02:59:32;;;;;;;;;;;8.40;99.90;;;;;;4986972;28;19921;-76
2023/12/12 03:01:57;;;;;;;;;;;8.40;99.90;;;;;;4986106;28;19906;-76
2023/12/12 03:04:23;;;;;;;;;;;8.30;99.90;;;;;;4986919;28;19909;-76
2023/12/12 03:06:48;;;;;;;;;;;8.30;99.90;;;;;;4986001;28;19902;-76
2023/12/12 03:09:14;;;;;;;;;;;8.20;99.90;;;;;;4985649;28;19906;-76
2023/12/12 03:11:40;;;;;;;;;;;8.20;99.90;;;;;;5002117;28;19913;-75
2023/12/12 03:14:05;;;;;;;;;;;8.10;99.90;;;;;;5005971;28;20168;-76
2023/12/12 03:16:31;;;;;;;;;;;8.10;99.90;;;;;;4989286;28;20095;-76
2023/12/12 03:18:56;;;;;;;;;;;8.10;99.90;;;;;;5007824;28;19905;-76
2023/12/12 03:21:22;;;;;;;;;;;8.00;99.90;;;;;;4996394;28;19985;-75
2023/12/12 03:23:48;;;;;;;;;;;8.00;99.90;;;;;;5010110;28;19913;-75
2023/12/12 03:26:13;;;;;;;;;;;8.00;99.90;;;;;;4987037;28;19957;-74
2023/12/12 03:28:39;;;;;;;;;;;8.00;99.90;;;;;;4986188;28;19960;-74
2023/12/12 03:31:05;;;;;;;;;;;8.00;99.90;;;;;;4985824;28;19906;-75
2023/12/12 03:33:30;;;;;;;;;;;8.00;99.90;;;;;;4969145;28;19949;-75
2023/12/12 03:35:56;;;;;;;;;;;8.00;99.90;;;;;;4994308;28;19908;-75
2023/12/12 03:38:21;;;;;;;;;;;8.10;99.90;;;;;;4988440;28;19906;-76
2023/12/12 03:40:47;;;;;;;;;;;8.10;99.90;;;;;;4988246;28;19921;-76
2023/12/12 03:43:13;;;;;;;;;;;8.10;99.90;;;;;;4983942;28;19902;-75
2023/12/12 03:45:38;;;;;;;;;;;8.10;99.90;;;;;;4986201;28;19906;-76
2023/12/12 03:48:04;;;;;;;;;;;8.20;99.90;;;;;;4985357;28;19913;-73
2023/12/12 03:50:36;;;;;;;;;;;8.20;99.90;;;;;;4985802;28;19902;-76
2023/12/12 03:53:01;;;;;;;;;;;8.30;99.90;;;;;;4967840;28;19912;-77
2023/12/12 03:55:27;;;;;;;;;;;8.30;99.90;;;;;;4968386;28;19906;-76
2023/12/12 03:57:55;;;;;;;;;;;8.30;99.90;;;;;;4968054;28;19929;-76
2023/12/12 04:00:21;;;;;;;;;;;8.30;99.90;;;;;;4992087;28;19913;-74
2023/12/12 04:02:46;;;;;;;;;;;8.30;99.90;;;;;;5005211;28;19959;-75
2023/12/12 04:05:12;;;;;;;;;;;8.40;99.90;;;;;;5001252;28;19901;-75
2023/12/12 04:07:41;;;;;;;;;;;8.40;99.90;;;;;;4985550;28;19906;-74
2023/12/12 04:10:12;;;;;;;;;;;8.50;99.90;;;;;;4984800;28;19956;-76
2023/12/12 04:12:38;;;;;;;;;;;8.40;99.90;;;;;;4985589;28;19937;-75
2023/12/12 04:15:04;;;;;;;;;;;8.30;99.90;;;;;;4967462;28;19913;-76
2023/12/12 04:17:30;;;;;;;;;;;8.20;99.90;;;;;;4985425;28;19909;-76
2023/12/12 04:19:56;;;;;;;;;;;8.10;99.90;;;;;;4984478;28;19914;-74
2023/12/12 04:22:21;;;;;;;;;;;7.90;99.90;;;;;;4969044;28;20189;-77
2023/12/12 04:24:47;;;;;;;;;;;7.80;99.90;;;;;;4970722;28;19906;-77
2023/12/12 04:27:12;;;;;;;;;;;7.70;99.90;;;;;;4967590;28;19914;-76
2023/12/12 04:29:38;;;;;;;;;;;7.50;99.90;;;;;;4985040;28;19949;-74
2023/12/12 04:32:04;;;;;;;;;;;7.40;99.90;;;;;;4967515;28;19972;-75
2023/12/12 04:34:30;;;;;;;;;;;7.40;99.90;;;;;;4985246;28;19906;-75
2023/12/12 04:36:56;;;;;;;;;;;7.30;99.90;;;;;;5001540;28;20208;-76
2023/12/12 04:39:21;;;;;;;;;;;7.20;99.90;;;;;;5004478;28;19908;-76
2023/12/12 04:41:47;;;;;;;;;;;7.20;99.90;;;;;;4992593;28;19969;-77
2023/12/12 04:44:12;;;;;;;;;;;7.10;99.90;;;;;;4984625;28;19921;-75
2023/12/12 04:46:38;;;;;;;;;;;7.00;99.90;;;;;;4984867;28;19941;-76
2023/12/12 04:49:03;;;;;;;;;;;7.00;99.90;;;;;;4967261;28;19929;-74
2023/12/12 04:51:29;;;;;;;;;;;7.00;99.90;;;;;;4984641;28;19988;-75
2023/12/12 04:53:55;;;;;;;;;;;7.00;99.90;;;;;;4984105;28;20161;-76
2023/12/12 04:56:20;;;;;;;;;;;7.00;99.90;;;;;;4968245;28;19985;-75
2023/12/12 04:58:46;;;;;;;;;;;7.00;99.90;;;;;;5001275;28;19906;-75
2023/12/12 05:01:15;;;;;;;;;;;7.00;99.90;;;;;;5003535;28;20024;-76
2023/12/12 05:03:40;;;;;;;;;;;7.00;99.90;;;;;;5003881;28;19973;-76
2023/12/12 05:06:09;;;;;;;;;;;7.00;99.90;;;;;;5003699;28;19929;-75
2023/12/12 05:08:35;;;;;;;;;;;7.10;99.90;;;;;;5003906;28;19937;-75
2023/12/12 05:11:04;;;;;;;;;;;7.10;99.90;;;;;;5003177;28;19929;-76
2023/12/12 05:13:30;;;;;;;;;;;7.10;99.90;;;;;;4997288;28;19906;-77
2023/12/12 05:15:58;;;;;;;;;;;7.10;99.90;;;;;;4983811;28;19925;-74
2023/12/12 05:18:24;;;;;;;;;;;7.10;99.90;;;;;;4984810;28;19960;-75
2023/12/12 05:20:50;;;;;;;;;;;7.20;99.90;;;;;;4967341;28;19918;-75
2023/12/12 05:23:16;;;;;;;;;;;7.20;99.90;;;;;;4983709;28;20202;-74
2023/12/12 05:25:42;;;;;;;;;;;7.30;99.90;;;;;;4984362;28;19906;-74
2023/12/12 05:28:07;;;;;;;;;;;7.30;99.90;;;;;;4983563;28;20092;-76
2023/12/12 05:30:33;;;;;;;;;;;7.40;99.90;;;;;;4995593;28;20195;-76
2023/12/12 05:32:58;;;;;;;;;;;7.50;99.90;;;;;;5002400;28;19905;-74
2023/12/12 05:35:24;;;;;;;;;;;7.60;99.90;;;;;;5003780;28;20183;-76
2023/12/12 05:37:52;;;;;;;;;;;7.60;99.90;;;;;;5003631;28;20187;-75
2023/12/12 05:40:18;;;;;;;;;;;7.70;99.90;;;;;;5003143;28;19913;-75
2023/12/12 05:42:44;;;;;;;;;;;7.70;99.90;;;;;;5003701;28;19952;-75
2023/12/12 05:45:09;;;;;;;;;;;7.80;99.90;;;;;;4984905;28;19969;-74
2023/12/12 05:47:35;;;;;;;;;;;7.80;99.90;;;;;;4987318;28;20008;-74
2023/12/12 05:50:02;;;;;;;;;;;7.80;99.90;;;;;;4983695;28;19973;-74
2023/12/12 05:52:28;;;;;;;;;;;7.80;99.90;;;;;;4984253;28;19909;-75
2023/12/12 05:54:54;;;;;;;;;;;7.80;99.90;;;;;;4983858;28;20157;-76
2023/12/12 05:57:20;;;;;;;;;;;7.80;99.90;;;;;;4983483;28;19906;-76
2023/12/12 05:59:46;;;;;;;;;;;7.80;99.90;;;;;;4984084;28;19910;-75
2023/12/12 06:02:11;;;;;;;;;;;7.70;99.90;;;;;;4983855;28;20176;-77
2023/12/12 06:04:38;;;;;;;;;;;7.70;99.90;;;;;;4970345;28;19906;-76
2023/12/12 06:07:04;;;;;;;;;;;7.80;99.90;;;;;;4983379;28;19908;-77
2023/12/12 06:09:29;;;;;;;;;;;7.80;99.90;;;;;;4983728;28;19906;-76
2023/12/12 06:11:55;;;;;;;;;;;7.70;99.90;;;;;;4983845;28;19906;-77
2023/12/12 06:14:23;;;;;;;;;;;7.70;99.90;;;;;;4983163;28;19941;-76
2023/12/12 06:16:49;;;;;;;;;;;7.80;99.90;;;;;;4984042;28;19953;-76
2023/12/12 06:19:15;;;;;;;;;;;7.80;99.90;;;;;;4983143;28;19906;-76
2023/12/12 06:21:40;;;;;;;;;;;7.80;99.90;;;;;;4969642;28;19926;-76
2023/12/12 06:24:07;;;;;;;;;;;7.90;99.90;;;;;;4983248;28;19941;-75
2023/12/12 06:26:33;;;;;;;;;;;7.90;99.90;;;;;;4983742;28;20141;-76
2023/12/12 06:28:59;;;;;;;;;;;7.90;99.90;;;;;;4966442;28;19917;-76
2023/12/12 06:31:24;;;;;;;;;;;7.90;99.90;;;;;;4983773;28;19910;-76
2023/12/12 06:33:51;;;;;;;;;;;7.90;99.90;;;;;;4983591;28;20227;-76
2023/12/12 06:36:17;;;;;;;;;;;7.90;99.90;;;;;;4977553;28;19917;-76
2023/12/12 06:38:45;;;;;;;;;;;7.90;99.90;;;;;;4998291;28;19905;-76
2023/12/12 06:41:11;;;;;;;;;;;7.90;99.90;;;;;;5002285;28;20144;-77
2023/12/12 06:43:36;;;;;;;;;;;7.90;99.90;;;;;;4986500;28;19960;-77
2023/12/12 06:46:02;;;;;;;;;;;7.90;99.90;;;;;;5006198;28;20040;-78
2023/12/12 06:48:28;;;;;;;;;;;8.00;99.90;;;;;;5006371;28;19910;-76
2023/12/12 06:50:53;;;;;;;;;;;8.00;99.90;;;;;;4989333;28;20073;-76
2023/12/12 06:53:19;;;;;;;;;;;8.00;99.90;;;;;;5006057;28;20193;-76
2023/12/12 06:55:45;;;;;;;;;;;8.00;99.90;;;;;;5004678;28;20137;-76
2023/12/12 06:58:17;;;;;;;;;;;8.00;99.90;;;;;;4988141;28;19902;-76
2023/12/12 07:00:43;;;;;;;;;;;8.00;99.90;;;;;;4986839;28;20086;-76
2023/12/12 07:03:12;;;;;;;;;;;8.00;99.90;;;;;;4986177;28;19905;-75
2023/12/12 07:05:37;;;;;;;;;;;8.00;99.90;;;;;;4970101;28;19902;-75
2023/12/12 07:08:04;;;;;;;;;;;8.00;99.90;;;;;;4968784;28;19913;-76
2023/12/12 07:10:30;;;;;;;;;;;8.10;99.90;;;;;;4986903;28;19906;-75
2023/12/12 07:12:56;;;;;;;;;;;8.10;99.90;;;;;;4989803;28;20210;-75
2023/12/12 07:15:23;;;;;;;;;;;8.10;99.90;;;;;;5005817;28;20093;-75
2023/12/12 07:17:49;;;;;;;;;;;8.10;99.90;;;;;;5006181;28;20307;-75
2023/12/12 07:20:14;;;;;;;;;;;8.10;99.90;;;;;;5005726;28;19913;-76
2023/12/12 07:22:40;;;;;;;;;;;8.10;99.90;;;;;;5006192;28;19905;-77
2023/12/12 07:25:06;;;;;;;;;;;8.10;99.90;;;;;;5005501;28;19912;-75
2023/12/12 07:27:31;;;;;;;;;;;8.10;99.90;;;;;;4972555;28;20129;-76
2023/12/12 07:29:58;;;;;;;;;;;8.20;99.90;;;;;;4977749;28;19922;-77
2023/12/12 07:32:26;;;;;;;;;;;8.20;99.90;;;;;;4968394;28;19906;-75
2023/12/12 07:34:52;;;;;;;;;;;8.20;99.90;;;;;;4986636;28;19909;-76
2023/12/12 07:37:18;;;;;;;;;;;8.30;99.90;;;;;;5004900;28;20099;-76
2023/12/12 07:39:46;;;;;;;;;;;8.30;99.90;;;;;;5005442;28;19968;-76
2023/12/12 07:42:13;;;;;;;;;;;8.40;99.90;;;;;;5005333;28;19912;-74
2023/12/12 07:44:39;;;;;;;;;;;8.40;99.90;;;;;;5000837;28;20006;-74
2023/12/12 07:47:04;;;;;;;;;;;8.50;99.90;;;;;;5005161;28;20119;-76
2023/12/12 07:49:30;;;;;;;;;;;8.50;99.90;;;;;;4988330;28;19929;-75
2023/12/12 07:51:59;;;;;;;;;;;8.50;99.90;;;;;;5005346;28;19952;-75
2023/12/12 07:54:33;;;;;;;;;;;8.50;99.90;;;;;;5004653;28;19914;-76
2023/12/12 07:56:59;;;;;;;;;;;8.50;99.90;;;;;;4971696;28;19913;-75
2023/12/12 07:59:24;;;;;;;;;;;8.60;99.90;;;;;;5004914;28;20171;-76
2023/12/12 08:01:53;;;;;;;;;;;8.60;99.90;;;;;;5002181;28;19936;-76
2023/12/12 08:04:18;;;;;;;;;;;8.60;99.90;;;;;;4968363;28;19985;-76
2023/12/12 08:06:44;;;;;;;;;;;8.60;99.90;;;;;;4988984;28;19922;-73
2023/12/12 08:09:10;;;;;;;;;;;8.60;99.90;;;;;;4996490;28;19902;-74
2023/12/12 08:11:35;;;;;;;;;;;8.70;99.90;;;;;;4962946;28;19906;-73
2023/12/12 08:14:02;;;;;;;;;;;8.60;99.90;;;;;;4975648;28;19906;-75
2023/12/12 08:16:27;;;;;;;;;;;8.60;99.90;;;;;;4951837;28;19910;-76
2023/12/12 08:18:53;;;;;;;;;;;8.70;99.90;;;;;;4997098;28;19905;-75
2023/12/12 08:21:20;;;;;;;;;;;8.70;99.90;;;;;;5004500;28;20088;-75
2023/12/12 08:23:48;;;;;;;;;;;8.70;99.90;;;;;;5005238;28;19912;-75
2023/12/12 08:26:14;;;;;;;;;;;8.70;99.90;;;;;;5004090;28;20092;-75
2023/12/12 08:28:39;;;;;;;;;;;8.80;99.90;;;;;;5004480;28;19920;-75
2023/12/12 08:31:05;;;;;;;;;;;8.80;99.90;;;;;;4987341;28;19906;-75
2023/12/12 08:33:31;;;;;;;;;;;8.90;99.90;;;;;;5003819;28;19905;-75
2023/12/12 08:35:57;;;;;;;;;;;8.90;99.90;;;;;;4999974;28;19967;-75
2023/12/12 08:38:23;;;;;;;;;;;9.00;99.90;;;;;;5003746;28;19902;-75
2023/12/12 08:40:49;;;;;;;;;;;9.00;99.90;;;;;;5004479;28;19917;-75
2023/12/12 08:43:14;;;;;;;;;;;9.10;99.90;;;;;;4986743;28;19945;-75
2023/12/12 08:45:40;;;;;;;;;;;9.20;99.90;;;;;;5004519;28;19909;-74
2023/12/12 08:48:05;;;;;;;;;;;9.10;99.90;;;;;;5004446;28;19905;-76
2023/12/12 08:50:31;;;;;;;;;;;9.00;99.90;;;;;;4986452;28;20176;-76
2023/12/12 08:52:58;;;;;;;;;;;9.00;99.90;;;;;;4995811;28;20165;-76
2023/12/12 08:55:23;;;;;;;;;;;9.00;99.90;;;;;;4983961;28;19913;-76
2023/12/12 08:57:49;;;;;;;;;;;9.00;99.90;;;;;;4984518;28;19937;-76
2023/12/12 09:00:15;;;;;;;;;;;9.10;99.90;;;;;;4984081;28;19989;-76
2023/12/12 09:02:40;;;;;;;;;;;9.10;99.90;;;;;;4967497;28;19981;-75
2023/12/12 09:05:06;;;;;;;;;;;9.20;99.90;;;;;;4984419;28;19906;-75
2023/12/12 09:07:35;;;;;;;;;;;9.30;99.90;;;;;;4983551;28;20000;-76
2023/12/12 09:10:03;;;;;;;;;;;9.30;99.90;;;;;;4971143;28;20155;-75
2023/12/12 09:12:29;;;;;;;;;;;9.40;99.90;;;;;;4984076;28;19910;-75
2023/12/12 09:14:55;;;;;;;;;;;9.40;99.90;;;;;;4967214;28;19902;-75
2023/12/12 09:17:20;;;;;;;;;;;9.50;99.90;;;;;;4982704;28;19906;-75
2023/12/12 09:19:49;;;;;;;;;;;9.50;99.90;;;;;;4984284;28;19917;-75
2023/12/12 09:22:14;;;;;;;;;;;9.60;99.90;;;;;;4983738;28;19913;-76
2023/12/12 09:24:43;;;;;;;;;;;9.60;99.90;;;;;;4984308;28;19906;-76
2023/12/12 09:27:09;;;;;;;;;;;9.70;99.90;;;;;;4970677;28;19941;-74
2023/12/12 09:29:34;;;;;;;;;;;9.60;99.90;;;;;;4983748;28;19920;-74
2023/12/12 09:32:00;;;;;;;;;;;9.70;99.90;;;;;;4966526;28;19944;-75
2023/12/12 09:34:25;;;;;;;;;;;9.70;99.90;;;;;;4966595;28;20096;-74
2023/12/12 09:36:51;;;;;;;;;;;9.70;99.90;;;;;;4983054;28;19924;-75
2023/12/12 09:39:17;;;;;;;;;;;9.70;99.90;;;;;;5002897;28;19972;-74
2023/12/12 09:41:46;;;;;;;;;;;9.80;99.90;;;;;;5003865;28;19913;-75
2023/12/12 09:44:19;;;;;;;;;;;9.90;99.90;;;;;;4998319;28;19948;-76
2023/12/12 09:46:48;;;;;;;;;;;9.90;99.90;;;;;;4985797;28;19905;-75
2023/12/12 09:49:14;;;;;;;;;;;10.00;99.90;;;;;;4985491;28;19937;-75
2023/12/12 09:51:43;;;;;;;;;;;10.00;99.90;;;;;;5003967;28;19902;-76
2023/12/12 09:54:10;;;;;;;;;;;10.10;99.90;;;;;;5003659;28;19905;-74
2023/12/12 09:56:36;;;;;;;;;;;10.10;99.90;;;;;;5002739;28;19928;-74
2023/12/12 09:59:03;;;;;;;;;;;10.20;99.90;;;;;;5003446;28;19902;-75
2023/12/12 10:01:29;;;;;;;;;;;10.20;99.90;;;;;;4993501;28;19934;-74
2023/12/12 10:03:55;;;;;;;;;;;10.20;99.90;;;;;;4966994;28;19910;-76
2023/12/12 10:06:24;;;;;;;;;;;10.20;99.90;;;;;;4983597;28;19976;-75
2023/12/12 10:08:49;;;;;;;;;;;10.20;99.90;;;;;;4966677;28;19913;-76
2023/12/12 10:11:15;;;;;;;;;;;10.20;99.90;;;;;;4965968;28;20148;-76
2023/12/12 10:13:48;;;;;;;;;;;10.20;99.90;;;;;;4984167;28;20061;-75
2023/12/12 10:16:14;;;;;;;;;;;10.10;99.90;;;;;;4983361;28;19906;-76
2023/12/12 10:18:39;;;;;;;;;;;10.10;99.90;;;;;;4989502;28;19928;-76
2023/12/12 10:21:15;;;;;;;;;;;10.10;99.90;;;;;;4987505;28;19906;-75
2023/12/12 10:23:51;;;;;;;;;;;10.10;99.90;;;;;;4969998;28;19934;-75
2023/12/12 10:26:30;;;;;;;;;;;10.00;99.90;;;;;;4985516;28;19906;-75
2023/12/12 10:28:56;;;;;;;;;;;10.00;99.90;;;;;;4987220;28;19913;-74
2023/12/12 10:31:22;;;;;;;;;;;9.90;99.90;;;;;;4986541;28;19913;-74
2023/12/12 10:33:49;;;;;;;;;;;9.90;99.90;;;;;;4974979;28;19977;-74
2023/12/12 10:36:21;;;;;;;;;;;9.90;99.90;;;;;;4989309;28;20127;-75
2023/12/12 10:38:46;;;;;;;;;;;9.80;99.90;;;;;;5006455;28;20009;-76
2023/12/12 10:41:14;;;;;;;;;;;9.70;99.90;;;;;;4989157;28;19934;-75
2023/12/12 10:43:43;;;;;;;;;;;9.70;99.90;;;;;;4988468;28;19921;-75
2023/12/12 10:46:11;;;;;;;;;;;9.70;99.90;;;;;;4989179;28;19913;-75
2023/12/12 10:48:41;;;;;;;;;;;9.70;99.90;;;;;;5005680;28;19980;-75
2023/12/12 10:51:07;;;;;;;;;;;9.70;99.90;;;;;;4982435;28;20048;-75
2023/12/12 10:53:35;;;;;;;;;;;9.70;99.90;;;;;;4986060;28;19976;-74
2023/12/12 10:56:01;;;;;;;;;;;9.80;99.90;;;;;;4969782;28;19920;-74
2023/12/12 10:58:26;;;;;;;;;;;9.70;99.90;;;;;;4968940;28;19937;-74
2023/12/12 11:00:52;;;;;;;;;;;9.70;99.90;;;;;;4986399;28;19910;-75
2023/12/12 11:03:18;;;;;;;;;;;9.80;99.90;;;;;;4986138;28;19952;-74
2023/12/12 11:05:45;;;;;;;;;;;9.80;99.90;;;;;;4986729;28;19913;-74
2023/12/12 11:08:11;;;;;;;;;;;9.70;99.90;;;;;;4986741;28;20072;-75
2023/12/12 11:10:37;;;;;;;;;;;9.80;99.90;;;;;;4997997;28;19997;-75
2023/12/12 11:13:03;;;;;;;;;;;9.90;99.90;;;;;;4988615;28;19936;-75
2023/12/12 11:15:29;;;;;;;;;;;9.90;99.90;;;;;;5005190;28;19905;-75
2023/12/12 11:17:56;;;;;;;;;;;10.10;99.90;;;;;;5006238;28;19982;-75
2023/12/12 11:20:22;;;;;;;;;;;10.40;99.90;;;;;;4987980;28;19910;-74
2023/12/12 11:22:50;;;;;;;;;;;10.60;99.90;;;;;;5005697;28;20250;-74
2023/12/12 11:25:19;;;;;;;;;;;10.80;99.90;;;;;;5005916;28;19997;-75
2023/12/12 11:27:49;;;;;;;;;;;11.00;99.90;;;;;;4996715;28;20119;-74
2023/12/12 11:30:15;;;;;;;;;;;10.90;99.90;;;;;;4985552;28;20215;-75
2023/12/12 11:32:41;;;;;;;;;;;11.00;99.90;;;;;;4985368;28;19974;-73
2023/12/12 11:35:24;;;;;;;;;;;11.00;99.90;;;;;;4971238;28;19910;-74
2023/12/12 11:37:51;;;;;;;;;;;10.90;99.90;;;;;;5005570;28;20238;-75
2023/12/12 11:40:17;;;;;;;;;;;10.90;99.90;;;;;;4988286;28;19914;-75
2023/12/12 11:42:44;;;;;;;;;;;10.90;99.90;;;;;;5004772;28;19909;-74
2023/12/12 11:45:10;;;;;;;;;;;10.90;99.90;;;;;;5000429;28;19908;-75
2023/12/12 11:47:36;;;;;;;;;;;11.00;99.90;;;;;;4987449;28;19932;-74
2023/12/12 11:50:11;;;;;;;;;;;11.00;99.90;;;;;;5005441;28;20051;-74
2023/12/12 11:52:36;;;;;;;;;;;11.10;99.90;;;;;;5004932;28;20076;-75
2023/12/12 11:55:02;;;;;;;;;;;11.10;99.90;;;;;;5005335;28;19906;-75
2023/12/12 11:57:28;;;;;;;;;;;11.20;99.90;;;;;;5004570;28;20105;-75
2023/12/12 11:59:54;;;;;;;;;;;11.20;99.90;;;;;;5003376;28;19922;-75
2023/12/12 12:02:19;;;;;;;;;;;11.20;99.90;;;;;;4954601;28;19910;-75
2023/12/12 12:04:45;;;;;;;;;;;11.20;99.90;;;;;;4985740;28;19921;-75
2023/12/12 12:07:11;;;;;;;;;;;11.20;99.90;;;;;;4985364;28;19910;-74
2023/12/12 12:09:38;;;;;;;;;;;11.10;99.90;;;;;;4984735;28;19913;-74
2023/12/12 12:12:07;;;;;;;;;;;11.20;99.90;;;;;;4985635;28;19909;-74
2023/12/12 12:14:42;;;;;;;;;;;11.20;99.90;;;;;;4985101;28;19913;-74
2023/12/12 12:17:08;;;;;;;;;;;11.20;99.90;;;;;;4985363;28;19910;-76
2023/12/12 12:19:34;;;;;;;;;;;11.20;99.90;;;;;;5000167;28;19905;-74
2023/12/12 12:22:03;;;;;;;;;;;11.20;99.90;;;;;;5005807;28;19910;-75
2023/12/12 12:24:32;;;;;;;;;;;11.20;99.90;;;;;;4990608;28;19902;-75
2023/12/12 12:26:58;;;;;;;;;;;11.10;99.90;;;;;;4992187;28;19929;-74
2023/12/12 12:29:25;;;;;;;;;;;11.10;99.90;;;;;;4974574;28;20227;-74
2023/12/12 12:31:53;;;;;;;;;;;11.10;99.90;;;;;;5004609;28;19947;-74
2023/12/12 12:34:23;;;;;;;;;;;11.10;99.90;;;;;;4987256;28;19905;-75
2023/12/12 12:36:50;;;;;;;;;;;11.00;99.90;;;;;;5002806;28;19905;-75
2023/12/12 12:39:19;;;;;;;;;;;11.00;99.90;;;;;;4987166;28;19973;-74
2023/12/12 12:41:52;;;;;;;;;;;11.00;99.90;;;;;;5003045;28;19914;-74
2023/12/12 12:44:17;;;;;;;;;;;11.00;99.90;;;;;;4987251;28;19909;-74
2023/12/12 12:46:52;;;;;;;;;;;10.90;99.90;;;;;;5004055;28;19948;-74
2023/12/12 12:49:21;;;;;;;;;;;10.90;99.90;;;;;;5003895;28;19905;-75
2023/12/12 12:51:47;;;;;;;;;;;11.00;99.90;;;;;;5002661;28;19988;-75
2023/12/12 12:54:16;;;;;;;;;;;11.00;99.90;;;;;;4970829;28;19906;-76
2023/12/12 12:56:48;;;;;;;;;;;11.00;99.90;;;;;;4983751;28;19961;-74
2023/12/12 12:59:18;;;;;;;;;;;11.00;99.90;;;;;;4984518;28;19906;-74
2023/12/12 13:01:46;;;;;;;;;;;10.90;99.90;;;;;;4983865;28;20217;-74
2023/12/12 13:04:12;;;;;;;;;;;10.90;99.90;;;;;;4984684;28;19973;-75
2023/12/12 13:06:43;;;;;;;;;;;10.80;99.90;;;;;;4984002;28;19960;-75
2023/12/12 13:09:09;;;;;;;;;;;10.70;99.90;;;;;;4990105;28;20184;-75
2023/12/12 13:11:36;;;;;;;;;;;10.60;99.90;;;;;;4985731;28;19981;-75
2023/12/12 13:14:01;;;;;;;;;;;10.60;99.90;;;;;;5003664;28;19908;-76
2023/12/12 13:16:27;;;;;;;;;;;10.50;99.90;;;;;;5003002;28;19906;-77
2023/12/12 13:18:52;;;;;;;;;;;10.50;99.90;;;;;;5003561;28;19905;-75
2023/12/12 13:21:18;;;;;;;;;;;10.50;99.90;;;;;;4970244;28;19996;-76
2023/12/12 13:23:43;;;;;;;;;;;10.50;99.90;;;;;;5003123;28;19932;-74
2023/12/12 13:26:09;;;;;;;;;;;10.40;99.90;;;;;;5001195;28;19913;-75
2023/12/12 13:28:35;;;;;;;;;;;10.40;99.90;;;;;;4983518;28;19914;-74
2023/12/12 13:31:00;;;;;;;;;;;10.40;99.90;;;;;;4983969;28;19906;-74
2023/12/12 13:33:26;;;;;;;;;;;10.30;99.90;;;;;;4966385;28;19913;-75
2023/12/12 13:35:51;;;;;;;;;;;10.30;99.90;;;;;;4992248;28;19948;-75
2023/12/12 13:38:17;;;;;;;;;;;10.20;99.90;;;;;;4986432;28;19987;-75
2023/12/12 13:40:43;;;;;;;;;;;10.20;99.90;;;;;;4985781;28;19913;-75
2023/12/12 13:43:08;;;;;;;;;;;10.20;99.90;;;;;;5003562;28;19913;-75
2023/12/12 13:45:36;;;;;;;;;;;10.20;99.90;;;;;;4998541;28;20037;-75
2023/12/12 13:48:02;;;;;;;;;;;10.20;99.90;;;;;;5003504;28;19912;-75
2023/12/12 13:50:29;;;;;;;;;;;10.20;99.90;;;;;;5002730;28;19969;-75
2023/12/12 13:52:58;;;;;;;;;;;10.30;99.90;;;;;;5004611;28;20132;-75
2023/12/12 13:55:24;;;;;;;;;;;10.20;99.90;;;;;;4990046;28;19917;-75
2023/12/12 13:57:49;;;;;;;;;;;10.30;99.90;;;;;;5006976;28;19906;-76
2023/12/12 14:00:19;;;;;;;;;;;10.40;99.90;;;;;;5005533;28;19909;-75
2023/12/12 14:02:44;;;;;;;;;;;10.40;99.90;;;;;;4989132;28;20176;-75
2023/12/12 14:05:10;;;;;;;;;;;10.50;99.90;;;;;;4988173;28;19902;-75
2023/12/12 14:07:36;;;;;;;;;;;10.50;99.90;;;;;;4987026;28;19906;-76
2023/12/12 14:10:02;;;;;;;;;;;10.50;99.90;;;;;;4987760;28;19977;-75
2023/12/12 14:12:28;;;;;;;;;;;10.50;99.90;;;;;;4987439;28;19902;-75
2023/12/12 14:14:53;;;;;;;;;;;10.60;99.90;;;;;;4987924;28;19906;-76
2023/12/12 14:17:19;;;;;;;;;;;10.50;99.90;;;;;;4988870;28;19946;-73
2023/12/12 14:19:45;;;;;;;;;;;10.50;99.90;;;;;;4989260;28;20088;-75
2023/12/12 14:22:10;;;;;;;;;;;10.50;99.90;;;;;;5007192;28;19984;-75